sensor_id;sensor_type;location;lat;lon;timestamp;P1;durP1;ratioP1;P2;durP2;ratioP2
75550;SDS011;65071;53.082;18.218;2024-03-08T09:33:50;19.60;;;9.60;;
75550;SDS011;65071;53.082;18.218;2024-03-08T09:36:18;18.50;;;9.00;;
75550;SDS011;65071;53.082;18.218;2024-03-08T09:41:49;23.10;;;10.40;;
75550;SDS011;65071;53.082;18.218;2024-03-08T09:44:16;14.60;;;7.10;;
75550;SDS011;65071;53.082;18.218;2024-03-08T09:46:43;23.90;;;11.00;;
75550;SDS011;65071;53.082;18.218;2024-03-08T09:49:13;24.90;;;12.40;;
75550;SDS011;65071;53.082;18.218;2024-03-08T09:51:40;24.10;;;10.90;;
75550;SDS011;65071;53.082;18.218;2024-03-08T09:54:07;21.20;;;10.60;;
75550;SDS011;65071;53.082;18.218;2024-03-08T09:56:36;18.30;;;8.50;;
75550;SDS011;65071;53.082;18.218;2024-03-08T09:59:05;17.40;;;10.00;;
75550;SDS011;65071;53.082;18.218;2024-03-08T10:01:51;19.30;;;8.90;;
75550;SDS011;65071;53.082;18.218;2024-03-08T10:04:25;20.80;;;10.80;;
75550;SDS011;65071;53.082;18.218;2024-03-08T10:07:00;19.80;;;10.50;;
75550;SDS011;65071;53.082;18.218;2024-03-08T10:09:27;20.50;;;10.10;;
75550;SDS011;65071;53.082;18.218;2024-03-08T10:11:55;15.40;;;7.90;;
75550;SDS011;65071;53.082;18.218;2024-03-08T10:14:24;15.50;;;8.30;;
75550;SDS011;65071;53.082;18.218;2024-03-08T10:16:52;20.50;;;11.20;;
75550;SDS011;65071;53.082;18.218;2024-03-08T10:19:19;19.50;;;11.00;;
75550;SDS011;65071;53.082;18.218;2024-03-08T10:21:49;17.40;;;9.20;;
75550;SDS011;65071;53.082;18.218;2024-03-08T10:24:17;15.20;;;9.10;;
75550;SDS011;65071;53.082;18.218;2024-03-08T10:26:44;15.50;;;7.60;;
75550;SDS011;65071;53.082;18.218;2024-03-08T10:29:10;14.20;;;7.30;;
75550;SDS011;65071;53.082;18.218;2024-03-08T10:31:43;10.10;;;5.00;;
75550;SDS011;65071;53.082;18.218;2024-03-08T10:34:10;9.70;;;5.10;;
75550;SDS011;65071;53.082;18.218;2024-03-08T10:36:37;11.20;;;5.30;;
75550;SDS011;65071;53.082;18.218;2024-03-08T10:39:18;15.50;;;8.10;;
75550;SDS011;65071;53.082;18.218;2024-03-08T10:41:52;14.20;;;7.50;;
75550;SDS011;65071;53.082;18.218;2024-03-08T10:44:26;9.60;;;5.10;;
75550;SDS011;65071;53.082;18.218;2024-03-08T10:47:13;11.70;;;6.20;;
75550;SDS011;65071;53.082;18.218;2024-03-08T10:49:51;11.80;;;6.70;;
75550;SDS011;65071;53.082;18.218;2024-03-08T10:52:21;14.70;;;7.60;;
75550;SDS011;65071;53.082;18.218;2024-03-08T10:54:49;13.10;;;6.60;;
75550;SDS011;65071;53.082;18.218;2024-03-08T10:57:18;14.60;;;7.60;;
75550;SDS011;65071;53.082;18.218;2024-03-08T10:59:50;12.30;;;6.50;;
75550;SDS011;65071;53.082;18.218;2024-03-08T11:02:18;10.10;;;5.70;;
75550;SDS011;65071;53.082;18.218;2024-03-08T11:04:49;9.30;;;3.60;;
75550;SDS011;65071;53.082;18.218;2024-03-08T11:07:16;10.40;;;6.40;;
75550;SDS011;65071;53.082;18.218;2024-03-08T11:12:20;8.30;;;5.00;;
75550;SDS011;65071;53.082;18.218;2024-03-08T11:14:54;8.60;;;4.70;;
75550;SDS011;65071;53.082;18.218;2024-03-08T11:17:25;11.90;;;5.30;;
75550;SDS011;65071;53.082;18.218;2024-03-08T11:20:08;10.00;;;5.80;;
75550;SDS011;65071;53.082;18.218;2024-03-08T11:22:41;7.70;;;4.10;;
75550;SDS011;65071;53.082;18.218;2024-03-08T11:25:56;8.20;;;4.70;;
75550;SDS011;65071;53.082;18.218;2024-03-08T11:28:15;8.80;;;5.10;;
75550;SDS011;65071;53.082;18.218;2024-03-08T11:30:44;8.50;;;4.10;;
75550;SDS011;65071;53.082;18.218;2024-03-08T11:33:26;7.70;;;4.00;;
75550;SDS011;65071;53.082;18.218;2024-03-08T11:36:02;8.60;;;4.90;;
75550;SDS011;65071;53.082;18.218;2024-03-08T11:38:40;7.10;;;4.00;;
75550;SDS011;65071;53.082;18.218;2024-03-08T11:41:07;9.00;;;4.20;;
75550;SDS011;65071;53.082;18.218;2024-03-08T11:43:34;7.20;;;4.30;;
75550;SDS011;65071;53.082;18.218;2024-03-08T11:46:08;6.90;;;4.30;;
75550;SDS011;65071;53.082;18.218;2024-03-08T11:48:35;12.00;;;6.10;;
75550;SDS011;65071;53.082;18.218;2024-03-08T11:51:04;9.80;;;4.60;;
75550;SDS011;65071;53.082;18.218;2024-03-08T11:53:34;9.90;;;4.20;;
75550;SDS011;65071;53.082;18.218;2024-03-08T11:56:06;7.40;;;3.80;;
75550;SDS011;65071;53.082;18.218;2024-03-08T11:58:34;7.50;;;3.60;;
75550;SDS011;65071;53.082;18.218;2024-03-08T12:01:06;7.70;;;3.80;;
75550;SDS011;65071;53.082;18.218;2024-03-08T12:03:35;10.50;;;5.00;;
75550;SDS011;65071;53.082;18.218;2024-03-08T12:06:01;9.10;;;5.20;;
75550;SDS011;65071;53.082;18.218;2024-03-08T12:08:32;9.50;;;5.00;;
75550;SDS011;65071;53.082;18.218;2024-03-08T12:10:59;10.50;;;5.30;;
75550;SDS011;65071;53.082;18.218;2024-03-08T12:13:32;8.50;;;5.10;;
75550;SDS011;65071;53.082;18.218;2024-03-08T12:16:00;9.50;;;5.10;;
75550;SDS011;65071;53.082;18.218;2024-03-08T12:18:33;11.00;;;5.40;;
75550;SDS011;65071;53.082;18.218;2024-03-08T12:21:10;12.20;;;7.10;;
75550;SDS011;65071;53.082;18.218;2024-03-08T12:23:40;10.50;;;5.90;;
75550;SDS011;65071;53.082;18.218;2024-03-08T12:26:24;9.50;;;4.80;;
75550;SDS011;65071;53.082;18.218;2024-03-08T12:28:52;12.40;;;6.10;;
75550;SDS011;65071;53.082;18.218;2024-03-08T12:31:19;10.30;;;5.70;;
75550;SDS011;65071;53.082;18.218;2024-03-08T12:33:50;12.00;;;7.00;;
75550;SDS011;65071;53.082;18.218;2024-03-08T12:36:17;14.70;;;6.80;;
75550;SDS011;65071;53.082;18.218;2024-03-08T12:38:49;9.30;;;4.80;;
75550;SDS011;65071;53.082;18.218;2024-03-08T12:41:15;9.40;;;4.80;;
75550;SDS011;65071;53.082;18.218;2024-03-08T12:43:46;7.10;;;3.90;;
75550;SDS011;65071;53.082;18.218;2024-03-08T12:46:17;8.90;;;4.50;;
75550;SDS011;65071;53.082;18.218;2024-03-08T12:48:47;12.20;;;5.70;;
75550;SDS011;65071;53.082;18.218;2024-03-08T12:51:14;12.80;;;6.70;;
75550;SDS011;65071;53.082;18.218;2024-03-08T12:53:42;11.10;;;5.60;;
75550;SDS011;65071;53.082;18.218;2024-03-08T12:56:13;9.80;;;6.00;;
75550;SDS011;65071;53.082;18.218;2024-03-08T12:58:54;12.00;;;5.70;;
75550;SDS011;65071;53.082;18.218;2024-03-08T13:01:21;11.00;;;5.50;;
75550;SDS011;65071;53.082;18.218;2024-03-08T13:03:48;10.90;;;5.10;;
75550;SDS011;65071;53.082;18.218;2024-03-08T13:06:18;10.50;;;5.40;;
75550;SDS011;65071;53.082;18.218;2024-03-08T13:08:47;11.10;;;6.80;;
75550;SDS011;65071;53.082;18.218;2024-03-08T13:11:17;10.80;;;5.90;;
75550;SDS011;65071;53.082;18.218;2024-03-08T13:13:44;11.10;;;6.00;;
75550;SDS011;65071;53.082;18.218;2024-03-08T13:16:10;8.80;;;4.60;;
75550;SDS011;65071;53.082;18.218;2024-03-08T13:18:38;12.50;;;6.80;;
75550;SDS011;65071;53.082;18.218;2024-03-08T13:21:04;11.10;;;7.10;;
75550;SDS011;65071;53.082;18.218;2024-03-08T13:23:36;14.30;;;6.80;;
75550;SDS011;65071;53.082;18.218;2024-03-08T13:26:06;12.20;;;6.70;;
75550;SDS011;65071;53.082;18.218;2024-03-08T13:28:33;12.80;;;6.30;;
75550;SDS011;65071;53.082;18.218;2024-03-08T13:31:04;12.80;;;6.50;;
75550;SDS011;65071;53.082;18.218;2024-03-08T13:33:33;15.50;;;7.10;;
75550;SDS011;65071;53.082;18.218;2024-03-08T13:36:02;11.50;;;5.90;;
75550;SDS011;65071;53.082;18.218;2024-03-08T13:38:30;12.20;;;6.80;;
75550;SDS011;65071;53.082;18.218;2024-03-08T13:40:58;12.90;;;7.00;;
75550;SDS011;65071;53.082;18.218;2024-03-08T13:43:25;10.50;;;5.20;;
75550;SDS011;65071;53.082;18.218;2024-03-08T13:45:55;12.20;;;6.40;;
75550;SDS011;65071;53.082;18.218;2024-03-08T13:48:21;11.70;;;6.00;;
75550;SDS011;65071;53.082;18.218;2024-03-08T13:50:48;12.60;;;7.00;;
75550;SDS011;65071;53.082;18.218;2024-03-08T13:53:16;13.40;;;6.70;;
75550;SDS011;65071;53.082;18.218;2024-03-08T13:55:42;13.50;;;6.60;;
75550;SDS011;65071;53.082;18.218;2024-03-08T13:58:08;11.50;;;6.10;;
75550;SDS011;65071;53.082;18.218;2024-03-08T14:00:36;10.10;;;5.10;;
75550;SDS011;65071;53.082;18.218;2024-03-08T14:03:02;10.50;;;6.20;;
75550;SDS011;65071;53.082;18.218;2024-03-08T14:05:32;10.50;;;5.90;;
75550;SDS011;65071;53.082;18.218;2024-03-08T14:08:04;14.50;;;6.90;;
75550;SDS011;65071;53.082;18.218;2024-03-08T14:10:33;12.50;;;7.00;;
75550;SDS011;65071;53.082;18.218;2024-03-08T14:13:00;12.70;;;6.60;;
75550;SDS011;65071;53.082;18.218;2024-03-08T14:15:28;12.10;;;6.80;;
75550;SDS011;65071;53.082;18.218;2024-03-08T14:17:55;13.60;;;6.00;;
75550;SDS011;65071;53.082;18.218;2024-03-08T14:20:23;13.50;;;7.10;;
75550;SDS011;65071;53.082;18.218;2024-03-08T14:22:56;10.80;;;6.00;;
75550;SDS011;65071;53.082;18.218;2024-03-08T14:25:23;14.40;;;7.20;;
75550;SDS011;65071;53.082;18.218;2024-03-08T14:27:50;14.50;;;6.60;;
75550;SDS011;65071;53.082;18.218;2024-03-08T14:30:24;12.50;;;6.40;;
75550;SDS011;65071;53.082;18.218;2024-03-08T14:33:02;16.80;;;9.10;;
75550;SDS011;65071;53.082;18.218;2024-03-08T14:35:29;15.00;;;7.70;;
75550;SDS011;65071;53.082;18.218;2024-03-08T14:37:56;15.80;;;8.10;;
75550;SDS011;65071;53.082;18.218;2024-03-08T14:40:26;9.30;;;5.00;;
75550;SDS011;65071;53.082;18.218;2024-03-08T14:42:52;15.70;;;7.70;;
75550;SDS011;65071;53.082;18.218;2024-03-08T14:45:19;16.80;;;8.70;;
75550;SDS011;65071;53.082;18.218;2024-03-08T14:47:46;14.40;;;8.00;;
75550;SDS011;65071;53.082;18.218;2024-03-08T14:50:16;15.20;;;8.20;;
75550;SDS011;65071;53.082;18.218;2024-03-08T14:52:43;14.10;;;6.70;;
75550;SDS011;65071;53.082;18.218;2024-03-08T14:55:10;15.20;;;8.90;;
75550;SDS011;65071;53.082;18.218;2024-03-08T14:57:40;13.30;;;7.40;;
75550;SDS011;65071;53.082;18.218;2024-03-08T15:00:08;14.40;;;7.70;;
75550;SDS011;65071;53.082;18.218;2024-03-08T15:02:42;10.70;;;6.00;;
75550;SDS011;65071;53.082;18.218;2024-03-08T15:05:09;14.90;;;8.20;;
75550;SDS011;65071;53.082;18.218;2024-03-08T15:07:37;16.50;;;9.00;;
75550;SDS011;65071;53.082;18.218;2024-03-08T15:10:08;13.20;;;6.30;;
75550;SDS011;65071;53.082;18.218;2024-03-08T15:12:38;14.80;;;6.80;;
75550;SDS011;65071;53.082;18.218;2024-03-08T15:15:08;11.70;;;6.30;;
75550;SDS011;65071;53.082;18.218;2024-03-08T15:17:36;20.50;;;9.40;;
75550;SDS011;65071;53.082;18.218;2024-03-08T15:20:06;16.30;;;8.60;;
75550;SDS011;65071;53.082;18.218;2024-03-08T15:22:42;22.10;;;10.30;;
75550;SDS011;65071;53.082;18.218;2024-03-08T15:25:10;15.40;;;7.30;;
75550;SDS011;65071;53.082;18.218;2024-03-08T15:27:46;15.80;;;7.80;;
75550;SDS011;65071;53.082;18.218;2024-03-08T15:30:12;19.60;;;9.10;;
75550;SDS011;65071;53.082;18.218;2024-03-08T15:32:39;18.70;;;9.20;;
75550;SDS011;65071;53.082;18.218;2024-03-08T15:35:10;18.60;;;9.10;;
75550;SDS011;65071;53.082;18.218;2024-03-08T15:37:40;16.10;;;8.00;;
75550;SDS011;65071;53.082;18.218;2024-03-08T15:40:09;18.90;;;8.60;;
75550;SDS011;65071;53.082;18.218;2024-03-08T15:42:55;15.60;;;8.20;;
75550;SDS011;65071;53.082;18.218;2024-03-08T15:45:23;16.50;;;8.20;;
75550;SDS011;65071;53.082;18.218;2024-03-08T15:47:50;21.70;;;9.90;;
75550;SDS011;65071;53.082;18.218;2024-03-08T15:50:16;22.20;;;11.00;;
75550;SDS011;65071;53.082;18.218;2024-03-08T15:52:44;22.30;;;9.80;;
75550;SDS011;65071;53.082;18.218;2024-03-08T15:55:14;23.20;;;11.20;;
75550;SDS011;65071;53.082;18.218;2024-03-08T15:57:46;20.60;;;9.70;;
75550;SDS011;65071;53.082;18.218;2024-03-08T16:03:03;17.60;;;8.90;;
75550;SDS011;65071;53.082;18.218;2024-03-08T16:05:34;18.00;;;8.20;;
75550;SDS011;65071;53.082;18.218;2024-03-08T16:08:02;17.50;;;8.20;;
75550;SDS011;65071;53.082;18.218;2024-03-08T16:10:29;15.60;;;6.90;;
75550;SDS011;65071;53.082;18.218;2024-03-08T16:12:56;17.50;;;8.20;;
75550;SDS011;65071;53.082;18.218;2024-03-08T16:15:23;22.30;;;9.90;;
75550;SDS011;65071;53.082;18.218;2024-03-08T16:17:50;17.40;;;8.40;;
75550;SDS011;65071;53.082;18.218;2024-03-08T16:20:17;14.30;;;5.80;;
75550;SDS011;65071;53.082;18.218;2024-03-08T16:22:44;17.40;;;7.20;;
75550;SDS011;65071;53.082;18.218;2024-03-08T16:25:11;13.80;;;5.90;;
75550;SDS011;65071;53.082;18.218;2024-03-08T16:27:45;16.90;;;8.10;;
75550;SDS011;65071;53.082;18.218;2024-03-08T16:30:13;13.80;;;5.20;;
75550;SDS011;65071;53.082;18.218;2024-03-08T16:32:42;18.10;;;8.00;;
75550;SDS011;65071;53.082;18.218;2024-03-08T16:35:11;19.90;;;9.00;;
75550;SDS011;65071;53.082;18.218;2024-03-08T16:37:38;22.00;;;9.30;;
75550;SDS011;65071;53.082;18.218;2024-03-08T16:40:06;16.90;;;9.80;;
75550;SDS011;65071;53.082;18.218;2024-03-08T16:42:32;16.20;;;7.40;;
75550;SDS011;65071;53.082;18.218;2024-03-08T16:44:58;23.30;;;11.80;;
75550;SDS011;65071;53.082;18.218;2024-03-08T16:47:24;18.30;;;9.10;;
75550;SDS011;65071;53.082;18.218;2024-03-08T16:49:51;18.20;;;9.60;;
75550;SDS011;65071;53.082;18.218;2024-03-08T16:52:17;16.20;;;7.50;;
75550;SDS011;65071;53.082;18.218;2024-03-08T16:54:46;25.30;;;14.10;;
75550;SDS011;65071;53.082;18.218;2024-03-08T16:57:12;20.30;;;11.50;;
75550;SDS011;65071;53.082;18.218;2024-03-08T16:59:40;23.70;;;11.70;;
75550;SDS011;65071;53.082;18.218;2024-03-08T17:02:06;20.40;;;10.20;;
75550;SDS011;65071;53.082;18.218;2024-03-08T17:04:36;22.10;;;11.00;;
75550;SDS011;65071;53.082;18.218;2024-03-08T17:07:03;22.10;;;10.90;;
75550;SDS011;65071;53.082;18.218;2024-03-08T17:09:32;20.80;;;10.90;;
75550;SDS011;65071;53.082;18.218;2024-03-08T17:12:01;21.10;;;10.60;;
75550;SDS011;65071;53.082;18.218;2024-03-08T17:14:28;19.30;;;9.10;;
75550;SDS011;65071;53.082;18.218;2024-03-08T17:16:55;20.40;;;8.90;;
75550;SDS011;65071;53.082;18.218;2024-03-08T17:19:25;20.30;;;9.50;;
75550;SDS011;65071;53.082;18.218;2024-03-08T17:21:54;24.30;;;11.10;;
75550;SDS011;65071;53.082;18.218;2024-03-08T17:24:21;22.00;;;10.70;;
75550;SDS011;65071;53.082;18.218;2024-03-08T17:26:50;24.80;;;12.30;;
75550;SDS011;65071;53.082;18.218;2024-03-08T17:29:17;26.40;;;11.90;;
75550;SDS011;65071;53.082;18.218;2024-03-08T17:31:47;31.00;;;14.30;;
75550;SDS011;65071;53.082;18.218;2024-03-08T17:34:16;38.20;;;16.00;;
75550;SDS011;65071;53.082;18.218;2024-03-08T17:36:45;33.80;;;15.10;;
75550;SDS011;65071;53.082;18.218;2024-03-08T17:39:12;31.00;;;14.60;;
75550;SDS011;65071;53.082;18.218;2024-03-08T17:41:48;34.70;;;14.40;;
75550;SDS011;65071;53.082;18.218;2024-03-08T17:44:17;33.60;;;15.80;;
75550;SDS011;65071;53.082;18.218;2024-03-08T17:46:45;40.20;;;17.50;;
75550;SDS011;65071;53.082;18.218;2024-03-08T17:49:13;52.00;;;23.60;;
75550;SDS011;65071;53.082;18.218;2024-03-08T17:51:40;97.50;;;36.50;;
75550;SDS011;65071;53.082;18.218;2024-03-08T17:54:08;114.30;;;43.50;;
75550;SDS011;65071;53.082;18.218;2024-03-08T17:56:37;184.90;;;71.60;;
75550;SDS011;65071;53.082;18.218;2024-03-08T17:59:04;193.90;;;80.30;;
75550;SDS011;65071;53.082;18.218;2024-03-08T18:01:34;204.00;;;84.90;;
75550;SDS011;65071;53.082;18.218;2024-03-08T18:04:03;195.20;;;79.10;;
75550;SDS011;65071;53.082;18.218;2024-03-08T18:06:33;188.40;;;71.20;;
75550;SDS011;65071;53.082;18.218;2024-03-08T18:09:05;197.30;;;73.90;;
75550;SDS011;65071;53.082;18.218;2024-03-08T18:11:36;202.10;;;76.00;;
75550;SDS011;65071;53.082;18.218;2024-03-08T18:14:03;215.50;;;88.90;;
75550;SDS011;65071;53.082;18.218;2024-03-08T18:16:39;245.80;;;100.90;;
75550;SDS011;65071;53.082;18.218;2024-03-08T18:19:08;252.70;;;99.20;;
75550;SDS011;65071;53.082;18.218;2024-03-08T18:21:39;266.30;;;110.00;;
75550;SDS011;65071;53.082;18.218;2024-03-08T18:24:05;261.50;;;103.80;;
75550;SDS011;65071;53.082;18.218;2024-03-08T18:26:32;262.80;;;105.50;;
75550;SDS011;65071;53.082;18.218;2024-03-08T18:29:00;261.70;;;100.10;;
75550;SDS011;65071;53.082;18.218;2024-03-08T18:31:30;251.70;;;99.40;;
75550;SDS011;65071;53.082;18.218;2024-03-08T18:33:57;260.00;;;97.50;;
75550;SDS011;65071;53.082;18.218;2024-03-08T18:36:29;249.70;;;94.80;;
75550;SDS011;65071;53.082;18.218;2024-03-08T18:38:56;267.20;;;97.90;;
75550;SDS011;65071;53.082;18.218;2024-03-08T18:41:24;269.90;;;94.20;;
75550;SDS011;65071;53.082;18.218;2024-03-08T18:43:59;260.20;;;93.80;;
75550;SDS011;65071;53.082;18.218;2024-03-08T18:46:27;256.80;;;93.90;;
75550;SDS011;65071;53.082;18.218;2024-03-08T18:48:53;253.80;;;88.00;;
75550;SDS011;65071;53.082;18.218;2024-03-08T18:51:19;224.00;;;79.50;;
75550;SDS011;65071;53.082;18.218;2024-03-08T18:53:45;222.50;;;75.10;;
75550;SDS011;65071;53.082;18.218;2024-03-08T18:56:12;215.20;;;75.20;;
75550;SDS011;65071;53.082;18.218;2024-03-08T18:58:41;195.20;;;69.90;;
75550;SDS011;65071;53.082;18.218;2024-03-08T19:01:07;190.70;;;67.00;;
75550;SDS011;65071;53.082;18.218;2024-03-08T19:03:33;191.30;;;66.50;;
75550;SDS011;65071;53.082;18.218;2024-03-08T19:06:00;197.60;;;64.80;;
75550;SDS011;65071;53.082;18.218;2024-03-08T19:08:30;184.80;;;62.00;;
75550;SDS011;65071;53.082;18.218;2024-03-08T19:10:59;183.40;;;60.20;;
75550;SDS011;65071;53.082;18.218;2024-03-08T19:13:25;169.70;;;57.60;;
75550;SDS011;65071;53.082;18.218;2024-03-08T19:15:52;178.40;;;61.10;;
75550;SDS011;65071;53.082;18.218;2024-03-08T19:18:18;167.40;;;59.30;;
75550;SDS011;65071;53.082;18.218;2024-03-08T19:20:44;167.00;;;58.00;;
75550;SDS011;65071;53.082;18.218;2024-03-08T19:23:12;186.10;;;59.30;;
75550;SDS011;65071;53.082;18.218;2024-03-08T19:25:39;160.60;;;56.10;;
75550;SDS011;65071;53.082;18.218;2024-03-08T19:28:11;168.40;;;57.30;;
75550;SDS011;65071;53.082;18.218;2024-03-08T19:30:40;166.10;;;58.10;;
75550;SDS011;65071;53.082;18.218;2024-03-08T19:33:06;169.40;;;55.90;;
75550;SDS011;65071;53.082;18.218;2024-03-08T19:35:37;165.60;;;58.10;;
75550;SDS011;65071;53.082;18.218;2024-03-08T19:38:04;165.50;;;56.80;;
75550;SDS011;65071;53.082;18.218;2024-03-08T19:40:33;154.80;;;54.90;;
75550;SDS011;65071;53.082;18.218;2024-03-08T19:43:03;175.60;;;61.70;;
75550;SDS011;65071;53.082;18.218;2024-03-08T19:45:36;186.50;;;69.30;;
75550;SDS011;65071;53.082;18.218;2024-03-08T19:48:06;180.80;;;68.60;;
75550;SDS011;65071;53.082;18.218;2024-03-08T19:50:36;174.40;;;62.40;;
75550;SDS011;65071;53.082;18.218;2024-03-08T19:53:07;174.00;;;61.70;;
75550;SDS011;65071;53.082;18.218;2024-03-08T19:55:35;174.70;;;58.70;;
75550;SDS011;65071;53.082;18.218;2024-03-08T19:58:03;156.20;;;57.40;;
75550;SDS011;65071;53.082;18.218;2024-03-08T20:00:30;155.60;;;55.10;;
75550;SDS011;65071;53.082;18.218;2024-03-08T20:02:59;175.20;;;60.80;;
75550;SDS011;65071;53.082;18.218;2024-03-08T20:05:28;155.60;;;57.60;;
75550;SDS011;65071;53.082;18.218;2024-03-08T20:07:57;174.70;;;65.30;;
75550;SDS011;65071;53.082;18.218;2024-03-08T20:10:30;170.90;;;62.70;;
75550;SDS011;65071;53.082;18.218;2024-03-08T20:12:57;165.90;;;62.30;;
75550;SDS011;65071;53.082;18.218;2024-03-08T20:15:24;154.30;;;59.00;;
75550;SDS011;65071;53.082;18.218;2024-03-08T20:17:54;143.30;;;50.80;;
75550;SDS011;65071;53.082;18.218;2024-03-08T20:20:21;150.50;;;53.60;;
75550;SDS011;65071;53.082;18.218;2024-03-08T20:22:48;149.80;;;54.00;;
75550;SDS011;65071;53.082;18.218;2024-03-08T20:25:16;164.20;;;58.30;;
75550;SDS011;65071;53.082;18.218;2024-03-08T20:27:45;147.90;;;51.40;;
75550;SDS011;65071;53.082;18.218;2024-03-08T20:30:18;131.00;;;46.50;;
75550;SDS011;65071;53.082;18.218;2024-03-08T20:32:49;137.80;;;48.90;;
75550;SDS011;65071;53.082;18.218;2024-03-08T20:35:16;154.90;;;56.60;;
75550;SDS011;65071;53.082;18.218;2024-03-08T20:37:50;140.20;;;52.00;;
75550;SDS011;65071;53.082;18.218;2024-03-08T20:40:17;164.50;;;56.60;;
75550;SDS011;65071;53.082;18.218;2024-03-08T20:45:19;252.00;;;87.50;;
75550;SDS011;65071;53.082;18.218;2024-03-08T20:47:46;259.70;;;94.60;;
75550;SDS011;65071;53.082;18.218;2024-03-08T20:50:13;250.90;;;89.60;;
75550;SDS011;65071;53.082;18.218;2024-03-08T20:52:41;199.10;;;72.00;;
75550;SDS011;65071;53.082;18.218;2024-03-08T20:55:08;184.00;;;64.10;;
75550;SDS011;65071;53.082;18.218;2024-03-08T20:57:39;160.50;;;55.30;;
75550;SDS011;65071;53.082;18.218;2024-03-08T21:00:16;151.30;;;52.00;;
75550;SDS011;65071;53.082;18.218;2024-03-08T21:02:55;151.80;;;53.80;;
75550;SDS011;65071;53.082;18.218;2024-03-08T21:05:22;148.60;;;51.50;;
75550;SDS011;65071;53.082;18.218;2024-03-08T21:07:48;154.90;;;52.50;;
75550;SDS011;65071;53.082;18.218;2024-03-08T21:10:15;173.40;;;58.20;;
75550;SDS011;65071;53.082;18.218;2024-03-08T21:12:41;156.10;;;51.90;;
75550;SDS011;65071;53.082;18.218;2024-03-08T21:15:08;168.40;;;56.60;;
75550;SDS011;65071;53.082;18.218;2024-03-08T21:17:35;158.80;;;53.80;;
75550;SDS011;65071;53.082;18.218;2024-03-08T21:20:03;147.60;;;50.60;;
75550;SDS011;65071;53.082;18.218;2024-03-08T21:22:30;143.50;;;46.90;;
75550;SDS011;65071;53.082;18.218;2024-03-08T21:24:56;146.00;;;48.90;;
75550;SDS011;65071;53.082;18.218;2024-03-08T21:27:23;147.90;;;50.00;;
75550;SDS011;65071;53.082;18.218;2024-03-08T21:29:49;151.40;;;51.60;;
75550;SDS011;65071;53.082;18.218;2024-03-08T21:32:17;143.50;;;50.60;;
75550;SDS011;65071;53.082;18.218;2024-03-08T21:34:44;137.00;;;48.90;;
75550;SDS011;65071;53.082;18.218;2024-03-08T21:37:10;160.80;;;56.20;;
75550;SDS011;65071;53.082;18.218;2024-03-08T21:39:36;169.70;;;61.20;;
75550;SDS011;65071;53.082;18.218;2024-03-08T21:42:03;183.90;;;65.40;;
75550;SDS011;65071;53.082;18.218;2024-03-08T21:44:29;172.70;;;58.80;;
75550;SDS011;65071;53.082;18.218;2024-03-08T21:46:56;186.60;;;63.20;;
75550;SDS011;65071;53.082;18.218;2024-03-08T21:49:22;154.60;;;58.20;;
75550;SDS011;65071;53.082;18.218;2024-03-08T21:51:49;168.70;;;55.70;;
75550;SDS011;65071;53.082;18.218;2024-03-08T21:54:16;157.90;;;54.10;;
75550;SDS011;65071;53.082;18.218;2024-03-08T21:56:43;171.20;;;55.90;;
75550;SDS011;65071;53.082;18.218;2024-03-08T21:59:10;165.80;;;54.10;;
75550;SDS011;65071;53.082;18.218;2024-03-08T22:01:36;163.50;;;52.20;;
75550;SDS011;65071;53.082;18.218;2024-03-08T22:04:03;162.10;;;54.60;;
75550;SDS011;65071;53.082;18.218;2024-03-08T22:06:29;160.60;;;49.30;;
75550;SDS011;65071;53.082;18.218;2024-03-08T22:08:55;165.70;;;54.70;;
75550;SDS011;65071;53.082;18.218;2024-03-08T22:11:25;177.30;;;56.40;;
75550;SDS011;65071;53.082;18.218;2024-03-08T22:13:52;180.80;;;57.00;;
75550;SDS011;65071;53.082;18.218;2024-03-08T22:16:18;179.70;;;55.30;;
75550;SDS011;65071;53.082;18.218;2024-03-08T22:18:44;170.90;;;57.20;;
75550;SDS011;65071;53.082;18.218;2024-03-08T22:21:11;170.10;;;57.90;;
75550;SDS011;65071;53.082;18.218;2024-03-08T22:23:37;183.10;;;57.20;;
75550;SDS011;65071;53.082;18.218;2024-03-08T22:26:03;184.60;;;57.40;;
75550;SDS011;65071;53.082;18.218;2024-03-08T22:28:34;164.00;;;55.50;;
75550;SDS011;65071;53.082;18.218;2024-03-08T22:31:01;187.90;;;60.20;;
75550;SDS011;65071;53.082;18.218;2024-03-08T22:33:29;210.80;;;67.50;;
75550;SDS011;65071;53.082;18.218;2024-03-08T22:35:55;250.70;;;84.60;;
75550;SDS011;65071;53.082;18.218;2024-03-08T22:38:22;228.30;;;74.80;;
75550;SDS011;65071;53.082;18.218;2024-03-08T22:40:48;223.40;;;71.80;;
75550;SDS011;65071;53.082;18.218;2024-03-08T22:43:16;199.20;;;63.70;;
75550;SDS011;65071;53.082;18.218;2024-03-08T22:45:43;186.60;;;57.90;;
75550;SDS011;65071;53.082;18.218;2024-03-08T22:48:12;195.90;;;61.00;;
75550;SDS011;65071;53.082;18.218;2024-03-08T22:50:39;190.30;;;58.60;;
75550;SDS011;65071;53.082;18.218;2024-03-08T22:53:06;169.20;;;53.10;;
75550;SDS011;65071;53.082;18.218;2024-03-08T22:55:34;148.80;;;49.00;;
75550;SDS011;65071;53.082;18.218;2024-03-08T22:58:00;153.90;;;49.20;;
75550;SDS011;65071;53.082;18.218;2024-03-08T23:00:27;148.60;;;48.00;;
75550;SDS011;65071;53.082;18.218;2024-03-08T23:03:05;155.60;;;48.50;;
75550;SDS011;65071;53.082;18.218;2024-03-08T23:05:36;134.10;;;44.90;;
75550;SDS011;65071;53.082;18.218;2024-03-08T23:08:08;131.60;;;43.30;;
75550;SDS011;65071;53.082;18.218;2024-03-08T23:10:34;139.40;;;46.90;;
75550;SDS011;65071;53.082;18.218;2024-03-08T23:13:00;129.40;;;45.20;;
75550;SDS011;65071;53.082;18.218;2024-03-08T23:15:29;143.10;;;48.10;;
75550;SDS011;65071;53.082;18.218;2024-03-08T23:17:56;138.90;;;44.90;;
75550;SDS011;65071;53.082;18.218;2024-03-08T23:20:22;140.40;;;46.60;;
75550;SDS011;65071;53.082;18.218;2024-03-08T23:22:57;153.10;;;48.00;;
75550;SDS011;65071;53.082;18.218;2024-03-08T23:25:23;148.30;;;47.30;;
75550;SDS011;65071;53.082;18.218;2024-03-08T23:27:54;159.00;;;51.50;;
75550;SDS011;65071;53.082;18.218;2024-03-08T23:30:23;157.70;;;50.30;;
75550;SDS011;65071;53.082;18.218;2024-03-08T23:32:50;155.40;;;47.30;;
75550;SDS011;65071;53.082;18.218;2024-03-08T23:35:17;128.90;;;43.70;;
75550;SDS011;65071;53.082;18.218;2024-03-08T23:37:47;136.80;;;43.00;;
75550;SDS011;65071;53.082;18.218;2024-03-08T23:40:14;112.60;;;36.20;;
75550;SDS011;65071;53.082;18.218;2024-03-08T23:42:42;129.40;;;43.90;;
75550;SDS011;65071;53.082;18.218;2024-03-08T23:45:12;133.20;;;42.50;;
75550;SDS011;65071;53.082;18.218;2024-03-08T23:47:42;133.60;;;41.90;;
75550;SDS011;65071;53.082;18.218;2024-03-08T23:50:11;123.10;;;40.20;;
75550;SDS011;65071;53.082;18.218;2024-03-08T23:52:50;120.00;;;39.80;;
75550;SDS011;65071;53.082;18.218;2024-03-08T23:55:18;108.60;;;36.80;;
75550;SDS011;65071;53.082;18.218;2024-03-08T23:57:59;115.00;;;36.10;;
